Airfield :
LOGIN :

Register | Disclaimer

   EN    FR    IT 

 










Legend :    VFR   Marginal VFR   IFR   Intensive IFR   Very Intensive IFR
Visi :
Ceiling :
>= 8 km
>= 3000ft
5 to 8 km
1000 to 3000 ft
1500m to 5 km
500 to 1000 ft
800 to 1500m
200 to 500 ft
< 800m
< 200 ft
Symbols :   Thunderstorms  Fog  Heavy snow  Heavy precipitations  Wind > 20 kt
SIGMETs :     Misc.  Thunderstorms  Icing  Turbulence  Mountain Waves  Volcanic Ashes






- Airport Elevation : 3 ft
- IATA code : DHR


EHKD - Den Helder De Kooy

CURRENT METAR :
  • 290055Z AUTO 32006KT 290V360 8000 BR OVC003 16/15 Q1011 YLO

EXPIRED METARs :
  • 290025Z AUTO 31007KT 280V350 9999 BKN003 OVC005 16/15 Q1011 YLO
  • 282355Z AUTO 31006KT 260V350 6000 BR SCT003 BKN004 OVC005 16/16 Q1011 YLO
  • 282344Z AUTO 31005KT 270V340 6000 BR BKN002 BKN004 OVC006 16/16 Q1011 AMB
  • 282340Z AUTO 31006KT 270V350 7000 BR SCT002 SCT004 BKN005 16/16 Q1011 AMB
  • 282325Z AUTO 32008KT 280V360 9999 SCT003 BKN004 OVC011 16/15 Q1011 YLO
  • 282302Z AUTO 32008KT 290V350 9000 BR SCT003 BKN004 BKN007 16/16 Q1011 YLO
  • 282239Z AUTO 31005KT 280V350 6000 BR FEW004 BKN005 BKN007 16/16 Q1011 YLO
  • 282235Z AUTO 31005KT 280V350 6000 BR FEW004 SCT005 BKN007 16/16 Q1011 YLO
  • 282219Z AUTO 31006KT 6000 BR FEW005 SCT007 BKN018 16/16 Q1011 GRN

TAF TAF EHKD
Valid from the 29 at 01:00 until the 29 at 13:00 UTC


290033Z 2901/2913 31010KT 6000 BKN005 BKN012
TEMPO 2901/2906 2500 RADZ BR BKN003 BKN005 OVC007
BECMG 2906/2908 9999 NSW SCT017 BKN030
BECMG 2909/2911 28007KT FEW020



MET'MAP, your aeronautical weather chart ! - Copyright ORBIFLY December 2007 - Disclaimer

ORBIFLY MET'MAP TEAM :

Programming & Development : Alexandra Zaïnal
Concept & original design : Baudouin d'Aumeries
Assistance for programming : Marc-Olivier Méhu
Technical & hardware support : Manuel Goepfert

Contact : metmap@orbifly.com




SOURCES & CREDITS :

   NOAA